createdAt,value
2019-04-07T00:01:33.102Z,11.46
2019-04-07T00:02:33.085Z,11.31
2019-04-07T00:04:25.810Z,11.45
2019-04-07T00:05:25.735Z,11.41
2019-04-07T00:07:18.715Z,11.46
2019-04-07T00:08:18.563Z,11.46
2019-04-07T00:10:11.231Z,11.41
2019-04-07T00:11:11.156Z,11.44
2019-04-07T00:13:04.080Z,11.38
2019-04-07T00:14:04.051Z,11.42
2019-04-07T00:15:56.745Z,11.45
2019-04-07T00:16:56.955Z,11.36
2019-04-07T00:18:49.622Z,11.26
2019-04-07T00:19:49.468Z,11.39
2019-04-07T00:21:42.344Z,11.38
2019-04-07T00:22:42.192Z,11.33
2019-04-07T00:24:35.296Z,11.31
2019-04-07T00:25:34.886Z,11.26
2019-04-07T00:27:27.732Z,11.28
2019-04-07T00:28:27.675Z,11.30
2019-04-07T00:30:21.128Z,11.24
2019-04-07T00:31:20.576Z,11.21
2019-04-07T00:33:13.374Z,11.06
2019-04-07T00:34:13.110Z,11.16
2019-04-07T00:36:05.919Z,11.19
2019-04-07T00:37:05.818Z,11.21
2019-04-07T00:38:59.389Z,11.27
2019-04-07T00:39:58.942Z,11.20
2019-04-07T00:41:51.826Z,11.20
2019-04-07T00:42:51.333Z,11.24
2019-04-07T00:44:44.297Z,11.20
2019-04-07T00:45:44.072Z,11.20
2019-04-07T00:47:37.280Z,11.30
2019-04-07T00:48:36.745Z,11.35
2019-04-07T00:50:30.518Z,11.35
2019-04-07T00:51:29.764Z,11.36
2019-04-07T00:53:23.194Z,11.30
2019-04-07T00:54:22.693Z,11.38
2019-04-07T00:56:15.815Z,11.31
2019-04-07T00:57:15.117Z,11.28
2019-04-07T00:59:08.021Z,11.20
2019-04-07T01:00:07.919Z,11.20
2019-04-07T01:02:00.683Z,11.19
2019-04-07T01:03:00.614Z,11.21
2019-04-07T01:04:53.425Z,11.16
2019-04-07T01:05:53.367Z,11.13
2019-04-07T01:07:46.435Z,10.94
2019-04-07T01:08:46.381Z,11.06
2019-04-07T01:10:39.271Z,11.19
2019-04-07T01:11:39.628Z,11.20
2019-04-07T01:13:31.998Z,11.31
2019-04-07T01:14:32.345Z,11.28
2019-04-07T01:16:25.166Z,11.19
2019-04-07T01:17:24.469Z,11.17
2019-04-07T01:19:17.858Z,11.19
2019-04-07T01:20:17.279Z,11.12
2019-04-07T01:22:10.117Z,11.08
2019-04-07T01:23:10.606Z,11.09
2019-04-07T01:25:02.693Z,11.08
2019-04-07T01:26:03.217Z,10.99
2019-04-07T01:27:55.580Z,11.01
2019-04-07T01:28:55.595Z,10.90
2019-04-07T01:30:49.036Z,10.95
2019-04-07T01:31:48.463Z,10.91
2019-04-07T01:33:41.610Z,10.78
2019-04-07T01:34:41.570Z,10.72
2019-04-07T01:36:33.910Z,10.72
2019-04-07T01:37:34.074Z,10.66
2019-04-07T01:39:26.515Z,10.58
2019-04-07T01:40:26.408Z,10.60
2019-04-07T01:42:19.182Z,10.63
2019-04-07T01:43:19.086Z,10.43
2019-04-07T01:45:11.896Z,10.38
2019-04-07T01:46:11.807Z,10.42
2019-04-07T01:48:04.950Z,10.32
2019-04-07T01:49:04.516Z,10.32
2019-04-07T01:50:57.315Z,10.29
2019-04-07T01:51:57.636Z,10.22
2019-04-07T01:53:49.987Z,10.32
2019-04-07T01:56:18.454Z,10.32
2019-04-07T01:57:18.469Z,10.43
2019-04-07T01:59:12.078Z,10.26
2019-04-07T02:00:11.156Z,10.25
2019-04-07T02:02:03.875Z,10.13
2019-04-07T02:03:04.262Z,10.06
2019-04-07T02:04:56.582Z,10.18
2019-04-07T02:06:01.523Z,10.29
2019-04-07T02:07:49.316Z,10.28
2019-04-07T02:08:49.244Z,10.34
2019-04-07T02:10:42.819Z,10.35
2019-04-07T02:11:41.966Z,10.34
2019-04-07T02:13:35.075Z,10.32
2019-04-07T02:14:34.672Z,10.34
2019-04-07T02:16:27.846Z,10.35
2019-04-07T02:17:27.360Z,10.34
2019-04-07T02:19:20.469Z,10.28
2019-04-07T02:20:20.723Z,10.34
2019-04-07T02:22:13.519Z,10.11
2019-04-07T02:23:12.824Z,10.18
2019-04-07T02:25:05.526Z,10.04
2019-04-07T02:26:06.040Z,10.13
2019-04-07T02:27:58.410Z,10.02
2019-04-07T02:28:58.407Z,10.06
2019-04-07T02:30:50.966Z,9.99
2019-04-07T02:31:51.969Z,9.91
2019-04-07T02:33:43.854Z,10.04
2019-04-07T02:34:44.091Z,9.99
2019-04-07T02:36:36.456Z,9.98
2019-04-07T02:37:36.363Z,10.02
2019-04-07T02:39:29.389Z,9.92
2019-04-07T02:40:29.141Z,9.88
2019-04-07T02:42:22.793Z,9.91
2019-04-07T02:43:21.966Z,9.81
2019-04-07T02:45:15.125Z,9.89
2019-04-07T02:46:14.917Z,9.88
2019-04-07T02:48:07.902Z,9.91
2019-04-07T02:49:08.208Z,9.93
2019-04-07T02:51:01.283Z,9.75
2019-04-07T02:52:00.597Z,9.71
2019-04-07T02:53:53.356Z,9.77
2019-04-07T02:54:53.225Z,9.65
2019-04-07T02:56:46.246Z,9.52
2019-04-07T02:57:47.427Z,9.59
2019-04-07T02:59:42.258Z,9.50
2019-04-07T03:00:39.384Z,9.56
2019-04-07T03:02:32.315Z,9.52
2019-04-07T03:03:31.875Z,9.62
2019-04-07T03:05:24.761Z,9.60
2019-04-07T03:06:37.297Z,9.56
2019-04-07T03:08:18.433Z,9.70
2019-04-07T03:09:18.720Z,9.60
2019-04-07T03:11:10.729Z,9.73
2019-04-07T03:12:10.471Z,9.63
2019-04-07T03:14:03.732Z,9.63
2019-04-07T03:15:03.328Z,9.41
2019-04-07T03:16:56.163Z,9.44
2019-04-07T03:17:55.984Z,9.44
2019-04-07T03:19:48.816Z,9.45
2019-04-07T03:20:49.529Z,9.52
2019-04-07T03:22:41.907Z,9.44
2019-04-07T03:23:41.644Z,9.44
2019-04-07T03:25:35.397Z,9.32
2019-04-07T03:26:34.321Z,9.31
2019-04-07T03:28:27.267Z,9.17
2019-04-07T03:29:27.025Z,9.19
2019-04-07T03:31:22.075Z,9.06
2019-04-07T03:32:22.334Z,9.08
2019-04-07T03:34:14.499Z,9.06
2019-04-07T03:35:14.991Z,9.08
2019-04-07T03:37:25.932Z,9.10
2019-04-07T03:38:06.481Z,9.08
2019-04-07T03:39:58.899Z,9.20
2019-04-07T03:40:59.120Z,9.22
2019-04-07T03:42:51.444Z,9.13
2019-04-07T03:43:51.367Z,9.15
2019-04-07T03:45:44.264Z,9.01
2019-04-07T03:46:44.188Z,9.12
2019-04-07T03:48:37.964Z,9.01
2019-04-07T03:49:36.866Z,9.13
2019-04-07T03:51:30.180Z,9.06
2019-04-07T03:52:29.663Z,9.00
2019-04-07T03:54:22.875Z,8.96
2019-04-07T03:55:22.761Z,8.97
2019-04-07T03:57:16.442Z,9.12
2019-04-07T03:58:16.227Z,9.03
2019-04-07T04:00:08.547Z,8.96
2019-04-07T04:01:08.298Z,8.97
2019-04-07T04:03:01.243Z,8.83
2019-04-07T04:04:02.187Z,8.73
2019-04-07T04:05:55.007Z,8.70
2019-04-07T04:06:54.710Z,8.79
2019-04-07T04:08:47.557Z,8.88
2019-04-07T04:09:47.598Z,9.06
2019-04-07T04:11:39.770Z,9.17
2019-04-07T04:12:39.673Z,9.22
2019-04-07T04:14:32.254Z,9.00
2019-04-07T04:15:32.897Z,9.01
2019-04-07T04:17:25.159Z,9.13
2019-04-07T04:18:24.884Z,9.03
2019-04-07T04:20:17.646Z,8.94
2019-04-07T04:21:17.795Z,9.04
2019-04-07T04:23:11.251Z,9.04
2019-04-07T04:24:10.363Z,9.13
2019-04-07T04:26:03.085Z,9.04
2019-04-07T04:27:03.020Z,9.03
2019-04-07T04:28:56.587Z,8.85
2019-04-07T04:29:56.683Z,8.97
2019-04-07T04:31:49.126Z,8.97
2019-04-07T04:32:48.532Z,8.96
2019-04-07T04:34:41.686Z,8.94
2019-04-07T04:35:41.282Z,8.98
2019-04-07T04:37:41.952Z,8.96
2019-04-07T04:38:33.964Z,8.91
2019-04-07T04:40:27.951Z,8.85
2019-04-07T04:41:27.388Z,8.80
2019-04-07T04:43:19.796Z,8.86
2019-04-07T04:44:19.443Z,8.83
2019-04-07T04:46:12.751Z,8.98
2019-04-07T04:47:12.490Z,8.94
2019-04-07T04:49:05.068Z,8.88
2019-04-07T04:50:06.203Z,8.89
2019-04-07T04:51:58.660Z,8.80
2019-04-07T04:52:57.804Z,8.78
2019-04-07T04:54:50.468Z,8.89
2019-04-07T04:55:51.388Z,8.91
2019-04-07T04:57:43.177Z,8.88
2019-04-07T04:58:43.097Z,8.89
2019-04-07T05:00:36.290Z,8.89
2019-04-07T05:01:36.228Z,8.86
2019-04-07T05:03:28.702Z,8.98
2019-04-07T05:04:29.306Z,9.04
2019-04-07T05:06:21.358Z,9.22
2019-04-07T05:07:22.809Z,9.08
2019-04-07T05:09:14.587Z,9.19
2019-04-07T05:10:13.898Z,9.35
2019-04-07T05:12:06.943Z,9.31
2019-04-07T05:13:07.529Z,9.34
2019-04-07T05:14:59.357Z,9.35
2019-04-07T05:15:59.455Z,9.35
2019-04-07T05:17:52.064Z,9.35
2019-04-07T05:18:51.980Z,9.42
2019-04-07T05:20:45.319Z,9.41
2019-04-07T05:21:44.679Z,9.41
2019-04-07T05:23:37.505Z,9.34
2019-04-07T05:24:37.671Z,9.31
2019-04-07T05:26:31.199Z,9.22
2019-04-07T05:27:30.214Z,9.35
2019-04-07T05:29:22.815Z,9.42
2019-04-07T05:30:22.757Z,9.41
2019-04-07T05:32:15.781Z,9.60
2019-04-07T05:33:15.469Z,9.42
2019-04-07T05:35:08.898Z,9.58
2019-04-07T05:36:08.844Z,9.55
2019-04-07T05:38:04.063Z,9.68
2019-04-07T05:39:01.008Z,9.74
2019-04-07T05:40:53.707Z,9.70
2019-04-07T05:41:53.682Z,9.78
2019-04-07T05:43:46.860Z,9.81
2019-04-07T05:44:46.253Z,9.81
2019-04-07T05:46:42.310Z,10.39
2019-04-07T05:47:43.653Z,10.46
2019-04-07T05:49:32.470Z,10.88
2019-04-07T05:50:31.860Z,10.75
2019-04-07T05:52:24.424Z,11.06
2019-04-07T05:53:24.426Z,11.20
2019-04-07T05:55:20.725Z,11.20
2019-04-07T05:56:17.622Z,11.02
2019-04-07T05:58:10.531Z,10.70
2019-04-07T05:59:12.130Z,10.57
2019-04-07T06:01:02.849Z,10.91
2019-04-07T06:02:03.058Z,10.84
2019-04-07T06:03:55.422Z,10.80
2019-04-07T06:04:55.140Z,10.98
2019-04-07T06:06:51.135Z,11.17
2019-04-07T06:07:47.948Z,11.12
2019-04-07T06:09:40.640Z,11.75
2019-04-07T06:10:41.110Z,12.08
2019-04-07T06:12:33.890Z,12.01
2019-04-07T06:13:33.276Z,11.78
2019-04-07T06:15:26.057Z,11.74
2019-04-07T06:16:26.749Z,11.59
2019-04-07T06:18:19.441Z,11.87
2019-04-07T06:19:19.182Z,11.98
2019-04-07T06:21:14.111Z,12.51
2019-04-07T06:22:11.519Z,12.91
2019-04-07T06:24:04.724Z,13.22
2019-04-07T06:25:05.553Z,13.13
2019-04-07T06:26:57.519Z,13.75
2019-04-07T06:27:56.911Z,14.34
2019-04-07T06:29:50.113Z,15.53
2019-04-07T06:30:49.604Z,16.25
2019-04-07T06:32:43.700Z,16.99
2019-04-07T06:33:42.309Z,16.75
2019-04-07T06:35:35.732Z,17.47
2019-04-07T06:36:35.189Z,18.13
2019-04-07T06:38:33.856Z,19.39
2019-04-07T06:39:27.763Z,19.71
2019-04-07T06:41:21.774Z,20.42
2019-04-07T06:42:20.869Z,20.38
2019-04-07T06:44:15.856Z,20.87
2019-04-07T06:45:13.174Z,20.96
2019-04-07T06:47:06.526Z,20.93
2019-04-07T06:48:08.274Z,21.45
2019-04-07T06:49:58.678Z,21.99
2019-04-07T06:51:00.281Z,22.23
2019-04-07T06:52:51.966Z,22.41
2019-04-07T06:53:51.483Z,22.49
2019-04-07T06:55:44.126Z,22.24
2019-04-07T06:56:44.704Z,22.15
2019-04-07T06:58:41.341Z,22.26
2019-04-07T06:59:37.262Z,22.70
2019-04-07T07:01:29.742Z,23.32
2019-04-07T07:02:31.172Z,23.29
2019-04-07T07:04:22.358Z,23.50
2019-04-07T07:05:22.413Z,23.14
2019-04-07T07:07:16.757Z,22.23
2019-04-07T07:08:16.981Z,21.42
2019-04-07T07:10:08.297Z,21.31
2019-04-07T07:11:08.244Z,21.58
2019-04-07T07:13:02.793Z,21.81
2019-04-07T07:14:00.435Z,22.23
2019-04-07T07:15:54.023Z,23.16
2019-04-07T07:16:53.434Z,22.26
2019-04-07T07:18:47.025Z,22.52
2019-04-07T07:19:46.154Z,22.61
2019-04-07T07:21:39.618Z,22.97
2019-04-07T07:22:41.531Z,22.27
2019-04-07T07:24:31.700Z,22.38
2019-04-07T07:25:33.054Z,22.27
2019-04-07T07:27:25.122Z,22.45
2019-04-07T07:28:24.324Z,22.63
2019-04-07T07:30:18.333Z,23.50
2019-04-07T07:31:18.146Z,23.64
2019-04-07T07:33:11.109Z,23.52
2019-04-07T07:34:11.063Z,22.61
2019-04-07T07:36:02.570Z,21.68
2019-04-07T07:37:03.029Z,21.42
2019-04-07T07:39:01.203Z,21.37
2019-04-07T07:39:55.387Z,21.16
2019-04-07T07:41:50.316Z,22.23
2019-04-07T07:42:50.710Z,22.54
2019-04-07T07:44:40.731Z,22.20
2019-04-07T07:45:44.817Z,21.93
2019-04-07T07:47:33.780Z,21.66
2019-04-07T07:48:33.417Z,21.98
2019-04-07T07:50:26.674Z,21.36
2019-04-07T07:51:26.748Z,20.66
2019-04-07T07:53:22.358Z,21.82
2019-04-07T07:54:18.889Z,22.52
2019-04-07T07:56:13.145Z,23.68
2019-04-07T07:57:12.288Z,23.74
2019-04-07T07:59:04.564Z,24.21
2019-04-07T08:00:06.752Z,24.30
2019-04-07T08:01:57.833Z,23.69
2019-04-07T08:02:57.232Z,23.74
2019-04-07T08:04:51.012Z,24.52
2019-04-07T08:05:50.049Z,23.45
2019-04-07T08:07:46.806Z,23.39
2019-04-07T08:08:45.203Z,23.86
2019-04-07T08:10:36.350Z,22.97
2019-04-07T08:11:35.919Z,22.81
2019-04-07T08:13:29.007Z,23.23
2019-04-07T08:14:29.270Z,23.23
2019-04-07T08:16:21.680Z,22.63
2019-04-07T08:17:21.494Z,22.91
2019-04-07T08:19:14.346Z,23.45
2019-04-07T08:20:14.275Z,23.56
2019-04-07T08:22:08.010Z,23.74
2019-04-07T08:23:06.991Z,23.79
2019-04-07T08:24:59.994Z,23.21
2019-04-07T08:26:00.458Z,23.00
2019-04-07T08:27:53.131Z,22.46
2019-04-07T08:28:53.346Z,22.06
2019-04-07T08:30:47.470Z,22.66
2019-04-07T08:31:45.442Z,22.97
2019-04-07T08:33:38.600Z,23.74
2019-04-07T08:34:38.216Z,24.09
2019-04-07T08:36:31.044Z,23.06
2019-04-07T08:37:30.999Z,23.71
2019-04-07T08:39:26.726Z,24.93
2019-04-07T08:40:24.234Z,24.77
2019-04-07T08:42:18.718Z,24.83
2019-04-07T08:43:19.791Z,23.64
2019-04-07T08:45:09.487Z,23.45
2019-04-07T08:46:09.924Z,23.64
2019-04-07T08:48:02.314Z,23.50
2019-04-07T08:49:02.143Z,23.79
2019-04-07T08:50:57.247Z,24.12
2019-04-07T08:51:54.974Z,24.39
2019-04-07T08:53:48.420Z,24.70
2019-04-07T08:54:50.369Z,24.93
2019-04-07T08:56:40.662Z,25.24
2019-04-07T08:57:41.192Z,24.87
2019-04-07T08:59:33.271Z,23.64
2019-04-07T09:00:33.642Z,22.96
2019-04-07T09:02:28.411Z,23.57
2019-04-07T09:03:26.246Z,23.63
2019-04-07T09:05:22.443Z,24.71
2019-04-07T09:06:19.555Z,25.24
2019-04-07T09:08:11.802Z,25.64
2019-04-07T09:09:12.154Z,26.03
2019-04-07T09:11:04.702Z,25.66
2019-04-07T09:12:04.853Z,26.19
2019-04-07T09:13:58.715Z,25.96
2019-04-07T09:14:57.278Z,25.89
2019-04-07T09:16:53.273Z,25.66
2019-04-07T09:17:50.146Z,25.79
2019-04-07T09:19:44.204Z,24.49
2019-04-07T09:20:44.929Z,23.97
2019-04-07T09:22:36.374Z,24.52
2019-04-07T09:23:35.812Z,24.93
2019-04-07T09:25:28.722Z,25.01
2019-04-07T09:26:28.675Z,25.09
2019-04-07T09:28:23.939Z,24.90
2019-04-07T09:29:24.967Z,25.51
2019-04-07T09:31:14.340Z,26.20
2019-04-07T09:32:14.111Z,25.79
2019-04-07T09:34:07.080Z,24.26
2019-04-07T09:35:07.258Z,24.36
2019-04-07T09:37:00.240Z,24.64
2019-04-07T09:38:00.361Z,25.31
2019-04-07T09:39:58.502Z,25.79
2019-04-07T09:40:52.731Z,25.24
2019-04-07T09:42:45.951Z,24.67
2019-04-07T09:43:45.222Z,24.46
2019-04-07T09:45:39.485Z,24.79
2019-04-07T09:46:41.986Z,24.39
2019-04-07T09:48:31.131Z,24.59
2019-04-07T09:49:31.006Z,25.01
2019-04-07T09:51:24.368Z,25.98
2019-04-07T09:52:23.691Z,25.67
2019-04-07T09:54:17.646Z,25.39
2019-04-07T09:55:16.701Z,25.49
2019-04-07T09:57:09.697Z,25.81
2019-04-07T09:58:11.554Z,26.32
2019-04-07T10:00:02.327Z,26.56
2019-04-07T10:01:02.368Z,26.69
2019-04-07T10:02:55.129Z,26.42
2019-04-07T10:03:54.959Z,26.39
2019-04-07T10:05:47.917Z,25.24
2019-04-07T10:06:49.593Z,25.42
2019-04-07T10:08:40.886Z,26.11
2019-04-07T10:09:41.142Z,26.01
2019-04-07T10:11:33.886Z,24.48
2019-04-07T10:12:33.561Z,24.94
2019-04-07T10:14:27.124Z,25.54
2019-04-07T10:15:26.357Z,25.96
2019-04-07T10:17:19.192Z,26.32
2019-04-07T10:18:19.224Z,25.83
2019-04-07T10:20:12.406Z,25.54
2019-04-07T10:21:11.910Z,24.94
2019-04-07T10:23:05.160Z,25.27
2019-04-07T10:24:05.267Z,25.12
2019-04-07T10:25:58.466Z,25.74
2019-04-07T10:26:57.743Z,24.89
2019-04-07T10:28:51.777Z,25.38
2019-04-07T10:29:51.345Z,25.54
2019-04-07T10:31:44.208Z,26.09
2019-04-07T10:32:44.106Z,26.34
2019-04-07T10:34:37.480Z,26.41
2019-04-07T10:35:36.787Z,26.88
2019-04-07T10:37:30.235Z,24.37
2019-04-07T10:38:30.325Z,24.09
2019-04-07T10:40:23.367Z,23.78
2019-04-07T10:41:22.816Z,23.15
2019-04-07T10:43:15.111Z,23.41
2019-04-07T10:44:15.049Z,23.44
2019-04-07T10:46:07.993Z,23.72
2019-04-07T10:47:07.817Z,24.15
2019-04-07T10:49:01.384Z,25.26
2019-04-07T10:50:05.184Z,25.39
2019-04-07T10:51:53.427Z,24.16
2019-04-07T10:52:53.501Z,24.15
2019-04-07T10:54:47.264Z,23.07
2019-04-07T10:55:46.710Z,22.96
2019-04-07T10:57:39.512Z,22.21
2019-04-07T10:58:39.471Z,21.74
2019-04-07T11:00:33.453Z,21.31
2019-04-07T11:01:33.390Z,20.79
2019-04-07T11:03:26.120Z,20.73
2019-04-07T11:04:26.031Z,20.83
2019-04-07T11:06:19.194Z,20.91
2019-04-07T11:07:19.039Z,20.79
2019-04-07T11:09:11.594Z,20.53
2019-04-07T11:10:11.581Z,20.71
2019-04-07T11:12:04.948Z,20.66
2019-04-07T11:13:04.546Z,20.76
2019-04-07T11:14:57.408Z,20.73
2019-04-07T11:15:57.680Z,20.75
2019-04-07T11:17:50.320Z,20.64
2019-04-07T11:18:50.421Z,20.93
2019-04-07T11:20:43.378Z,21.16
2019-04-07T11:21:42.887Z,21.19
2019-04-07T11:23:35.883Z,21.08
2019-04-07T11:24:35.478Z,21.00
2019-04-07T11:26:28.248Z,21.13
2019-04-07T11:27:29.390Z,21.27
2019-04-07T11:29:21.149Z,21.01
2019-04-07T11:30:21.360Z,20.79
2019-04-07T11:32:13.982Z,20.50
2019-04-07T11:33:13.689Z,20.35
2019-04-07T11:35:07.110Z,20.35
2019-04-07T11:36:06.543Z,20.22
2019-04-07T11:38:00.316Z,20.12
2019-04-07T11:38:59.439Z,20.01
2019-04-07T11:40:53.438Z,20.12
2019-04-07T11:41:52.735Z,20.19
2019-04-07T11:43:45.226Z,20.41
2019-04-07T11:44:45.604Z,20.46
2019-04-07T11:46:38.851Z,20.33
2019-04-07T11:47:38.050Z,20.38
2019-04-07T11:49:31.278Z,20.31
2019-04-07T11:50:30.970Z,20.44
2019-04-07T11:52:23.643Z,20.40
2019-04-07T11:53:24.174Z,20.25
2019-04-07T11:55:17.300Z,19.92
2019-04-07T11:56:16.421Z,20.07
2019-04-07T11:58:14.818Z,19.97
2019-04-07T11:59:10.105Z,20.00
2019-04-07T12:01:03.580Z,20.27
2019-04-07T12:02:03.686Z,20.20
2019-04-07T12:03:57.093Z,20.25
2019-04-07T12:04:55.905Z,20.40
2019-04-07T12:06:49.786Z,20.37
2019-04-07T12:07:53.988Z,20.51
2019-04-07T12:09:41.648Z,20.64
2019-04-07T12:10:53.498Z,20.82
2019-04-07T12:12:35.546Z,20.69
2019-04-07T12:13:34.890Z,20.63
2019-04-07T12:15:28.919Z,20.53
2019-04-07T12:16:29.308Z,20.17
2019-04-07T12:18:20.389Z,19.98
2019-04-07T12:19:22.804Z,19.97
2019-04-07T12:21:20.749Z,20.04
2019-04-07T12:22:13.994Z,20.08
2019-04-07T12:24:06.044Z,20.33
2019-04-07T12:25:06.645Z,20.19
2019-04-07T12:27:00.727Z,20.20
2019-04-07T12:27:58.539Z,20.35
2019-04-07T12:29:51.598Z,20.68
2019-04-07T12:30:51.307Z,20.75
2019-04-07T12:32:44.146Z,20.83
2019-04-07T12:33:44.045Z,20.90
2019-04-07T12:35:36.810Z,20.90
2019-04-07T12:36:37.582Z,20.83
2019-04-07T12:38:29.486Z,20.85
2019-04-07T12:39:31.588Z,20.81
2019-04-07T12:41:23.354Z,20.48
2019-04-07T12:42:22.406Z,20.40
2019-04-07T12:44:15.790Z,20.41
2019-04-07T12:45:15.006Z,20.33
2019-04-07T12:47:08.084Z,20.44
2019-04-07T12:48:07.720Z,20.54
2019-04-07T12:50:00.644Z,20.66
2019-04-07T12:51:00.836Z,20.73
2019-04-07T12:52:54.032Z,20.72
2019-04-07T12:53:53.973Z,20.76
2019-04-07T12:55:53.403Z,20.54
2019-04-07T12:56:46.750Z,20.44
2019-04-07T12:58:41.237Z,20.64
2019-04-07T12:59:39.145Z,20.63
2019-04-07T13:01:31.744Z,20.64
2019-04-07T13:02:31.857Z,20.60
2019-04-07T13:04:24.522Z,20.41
2019-04-07T13:05:24.473Z,20.48
2019-04-07T13:07:19.746Z,20.63
2019-04-07T13:08:19.939Z,20.79
2019-04-07T13:10:10.490Z,20.27
2019-04-07T13:11:11.862Z,20.12
2019-04-07T13:13:03.664Z,19.97
2019-04-07T13:14:06.327Z,20.17
2019-04-07T13:15:55.711Z,20.22
2019-04-07T13:16:58.798Z,20.23
2019-04-07T13:18:49.993Z,20.12
2019-04-07T13:19:50.315Z,20.19
2019-04-07T13:21:41.432Z,20.31
2019-04-07T13:22:42.138Z,20.48
2019-04-07T13:24:37.754Z,20.53
2019-04-07T13:25:34.333Z,20.42
2019-04-07T13:27:27.713Z,20.58
2019-04-07T13:28:27.502Z,20.64
2019-04-07T13:30:20.395Z,20.66
2019-04-07T13:31:20.212Z,20.72
2019-04-07T13:33:12.959Z,20.81
2019-04-07T13:34:12.877Z,20.57
2019-04-07T13:36:06.154Z,20.54
2019-04-07T13:37:06.938Z,20.54
2019-04-07T13:38:58.871Z,20.57
2019-04-07T13:39:58.870Z,20.68
2019-04-07T13:41:55.324Z,20.69
2019-04-07T13:42:52.099Z,20.81
2019-04-07T13:44:45.820Z,20.82
2019-04-07T13:45:46.216Z,20.91
2019-04-07T13:47:42.094Z,20.81
2019-04-07T13:48:37.919Z,20.73
2019-04-07T13:50:31.902Z,20.73
2019-04-07T13:51:30.418Z,20.83
2019-04-07T13:53:25.815Z,20.75
2019-04-07T13:54:23.082Z,20.76
2019-04-07T13:56:17.393Z,20.63
2019-04-07T13:57:15.538Z,20.76
2019-04-07T13:59:10.907Z,20.85
2019-04-07T14:00:08.027Z,20.75
2019-04-07T14:02:00.837Z,20.68
2019-04-07T14:03:01.402Z,20.81
2019-04-07T14:04:55.773Z,20.69
2019-04-07T14:05:53.580Z,20.53
2019-04-07T14:07:49.181Z,20.25
2019-04-07T14:08:46.983Z,20.22
2019-04-07T14:10:39.388Z,20.46
2019-04-07T14:11:52.491Z,20.63
2019-04-07T14:13:35.594Z,20.73
2019-04-07T14:14:32.689Z,20.78
2019-04-07T14:16:24.721Z,20.78
2019-04-07T14:17:24.778Z,20.75
2019-04-07T14:19:17.810Z,20.72
2019-04-07T14:20:17.248Z,20.78
2019-04-07T14:22:10.146Z,20.72
2019-04-07T14:23:10.035Z,20.64
2019-04-07T14:25:03.890Z,20.46
2019-04-07T14:26:03.619Z,20.44
2019-04-07T14:27:56.656Z,20.68
2019-04-07T14:28:56.540Z,20.73
2019-04-07T14:30:49.907Z,20.94
2019-04-07T14:31:49.176Z,20.78
2019-04-07T14:33:42.516Z,20.81
2019-04-07T14:34:41.796Z,20.82
2019-04-07T14:36:35.105Z,20.78
2019-04-07T14:37:35.283Z,20.83
2019-04-07T14:39:28.190Z,20.93
2019-04-07T14:40:27.972Z,20.73
2019-04-07T14:42:20.291Z,20.79
2019-04-07T14:43:20.964Z,20.73
2019-04-07T14:45:12.941Z,20.69
2019-04-07T14:46:12.871Z,20.79
2019-04-07T14:48:05.616Z,20.76
2019-04-07T14:49:05.564Z,20.76
2019-04-07T14:50:59.178Z,20.63
2019-04-07T14:51:58.501Z,20.60
2019-04-07T14:53:51.359Z,20.66
2019-04-07T14:54:57.025Z,20.71
2019-04-07T14:56:43.928Z,20.46
2019-04-07T14:57:44.631Z,20.40
2019-04-07T14:59:36.879Z,20.31
2019-04-07T15:00:37.479Z,20.10
2019-04-07T15:02:30.176Z,20.08
2019-04-07T15:03:29.397Z,20.20
2019-04-07T15:05:25.255Z,20.16
2019-04-07T15:06:22.831Z,20.37
2019-04-07T15:08:15.232Z,20.30
2019-04-07T15:09:14.926Z,20.27
2019-04-07T15:11:07.956Z,20.51
2019-04-07T15:12:15.953Z,20.61
2019-04-07T15:14:01.573Z,20.72
2019-04-07T15:15:05.233Z,20.64
2019-04-07T15:16:53.496Z,20.71
2019-04-07T15:17:53.114Z,20.79
2019-04-07T15:19:46.231Z,20.60
2019-04-07T15:20:46.260Z,20.42
2019-04-07T15:22:39.031Z,20.40
2019-04-07T15:23:38.645Z,20.50
2019-04-07T15:25:31.446Z,20.54
2019-04-07T15:26:31.405Z,20.57
2019-04-07T15:28:24.770Z,20.38
2019-04-07T15:29:24.319Z,20.41
2019-04-07T15:31:18.351Z,20.41
2019-04-07T15:32:17.091Z,20.44
2019-04-07T15:34:11.928Z,20.54
2019-04-07T15:35:12.464Z,20.50
2019-04-07T15:37:02.479Z,20.19
2019-04-07T15:38:03.234Z,20.22
2019-04-07T15:39:55.850Z,20.19
2019-04-07T15:40:55.919Z,20.23
2019-04-07T15:42:50.684Z,20.17
2019-04-07T15:43:48.893Z,20.35
2019-04-07T15:45:42.676Z,20.38
2019-04-07T15:46:41.527Z,20.34
2019-04-07T15:48:34.040Z,20.26
2019-04-07T15:49:34.365Z,20.30
2019-04-07T15:51:26.393Z,20.22
2019-04-07T15:52:26.404Z,20.19
2019-04-07T15:54:22.326Z,20.19
2019-04-07T15:55:19.064Z,20.23
2019-04-07T15:57:11.803Z,20.17
2019-04-07T15:58:11.744Z,20.16
2019-04-07T16:00:05.485Z,20.35
2019-04-07T16:01:07.324Z,20.35
2019-04-07T16:02:57.818Z,20.38
2019-04-07T16:03:57.203Z,20.38
2019-04-07T16:05:50.238Z,20.10
2019-04-07T16:06:50.627Z,20.19
2019-04-07T16:08:43.023Z,19.98
2019-04-07T16:09:50.881Z,19.92
2019-04-07T16:11:35.650Z,19.97
2019-04-07T16:12:44.900Z,19.94
2019-04-07T16:14:28.568Z,19.95
2019-04-07T16:15:28.485Z,19.95
2019-04-07T16:17:21.286Z,19.85
2019-04-07T16:18:22.056Z,19.98
2019-04-07T16:20:21.418Z,19.92
2019-04-07T16:21:14.278Z,19.80
2019-04-07T16:23:07.069Z,19.83
2019-04-07T16:24:07.341Z,19.86
2019-04-07T16:26:01.142Z,19.78
2019-04-07T16:27:03.301Z,19.79
2019-04-07T16:28:52.905Z,19.70
2019-04-07T16:29:52.947Z,19.68
2019-04-07T16:31:46.480Z,19.67
2019-04-07T16:32:45.528Z,19.75
2019-04-07T16:34:41.150Z,19.62
2019-04-07T16:35:38.249Z,19.68
2019-04-07T16:37:31.971Z,19.58
2019-04-07T16:38:31.791Z,19.61
2019-04-07T16:40:23.897Z,19.47
2019-04-07T16:41:23.766Z,19.53
2019-04-07T16:43:17.988Z,19.52
2019-04-07T16:44:17.009Z,19.49
2019-04-07T16:46:10.563Z,19.47
2019-04-07T16:47:20.204Z,19.39
2019-04-07T16:49:02.569Z,19.38
2019-04-07T16:50:03.175Z,19.38
2019-04-07T16:51:58.279Z,19.31
2019-04-07T16:52:55.339Z,19.16
2019-04-07T16:54:47.874Z,19.27
2019-04-07T16:55:51.722Z,19.25
2019-04-07T16:57:40.642Z,19.23
2019-04-07T16:58:41.537Z,19.09
2019-04-07T17:00:34.411Z,19.02
2019-04-07T17:01:33.595Z,19.01
2019-04-07T17:03:27.447Z,18.99
2019-04-07T17:04:26.772Z,18.97
2019-04-07T17:06:19.951Z,18.94
2019-04-07T17:07:21.126Z,18.90
2019-04-07T17:09:12.143Z,18.90
2019-04-07T17:10:11.689Z,18.84
2019-04-07T17:12:04.506Z,18.76
2019-04-07T17:13:14.629Z,18.78
2019-04-07T17:14:57.824Z,18.66
2019-04-07T17:15:57.323Z,18.74
2019-04-07T17:17:52.460Z,18.54
2019-04-07T17:18:51.026Z,18.46
2019-04-07T17:20:42.833Z,18.38
2019-04-07T17:21:43.103Z,18.38
2019-04-07T17:23:36.427Z,18.23
2019-04-07T17:24:35.431Z,18.28
2019-04-07T17:26:28.357Z,18.20
2019-04-07T17:27:28.201Z,18.17
2019-04-07T17:29:22.341Z,18.17
2019-04-07T17:30:23.650Z,18.09
2019-04-07T17:32:13.799Z,17.99
2019-04-07T17:33:13.996Z,17.87
2019-04-07T17:35:07.354Z,17.77
2019-04-07T17:36:06.521Z,17.74
2019-04-07T17:38:03.559Z,17.79
2019-04-07T17:38:59.325Z,17.66
2019-04-07T17:40:52.253Z,17.49
2019-04-07T17:41:52.155Z,17.58
2019-04-07T17:43:52.662Z,17.47
2019-04-07T17:44:47.807Z,17.40
2019-04-07T17:46:38.187Z,17.38
2019-04-07T17:47:38.404Z,17.22
2019-04-07T17:49:33.508Z,17.17
2019-04-07T17:50:31.720Z,17.20
2019-04-07T17:52:24.676Z,17.20
2019-04-07T17:53:23.720Z,17.07
2019-04-07T17:55:17.523Z,17.03
2019-04-07T17:56:19.994Z,16.99
2019-04-07T17:58:10.176Z,16.82
2019-04-07T17:59:13.091Z,16.82
2019-04-07T18:01:02.348Z,16.73
2019-04-07T18:02:02.382Z,16.60
2019-04-07T18:03:55.147Z,16.45
2019-04-07T18:04:55.114Z,16.37
2019-04-07T18:06:49.457Z,16.30
2019-04-07T18:07:48.822Z,16.32
2019-04-07T18:09:41.737Z,16.17
2019-04-07T18:10:41.164Z,16.26
2019-04-07T18:12:33.985Z,16.17
2019-04-07T18:13:43.863Z,16.13
2019-04-07T18:15:27.431Z,16.04
2019-04-07T18:16:26.726Z,16.11
2019-04-07T18:18:23.570Z,16.11
2019-04-07T18:19:19.744Z,16.08
2019-04-07T18:21:15.424Z,16.03
2019-04-07T18:22:12.554Z,16.07
2019-04-07T18:24:04.918Z,16.10
2019-04-07T18:25:05.223Z,16.04
2019-04-07T18:26:58.376Z,15.93
2019-04-07T18:27:57.617Z,15.84
2019-04-07T18:29:50.680Z,15.85
2019-04-07T18:30:51.403Z,15.74
2019-04-07T18:32:45.018Z,15.80
2019-04-07T18:33:43.525Z,15.74
2019-04-07T18:36:37.017Z,15.67
2019-04-07T18:38:29.774Z,15.59
2019-04-07T18:39:29.644Z,15.58
2019-04-07T18:41:21.958Z,15.53
2019-04-07T18:42:22.028Z,15.56